createdAt,value
2023-05-14T00:03:22.878Z,100131.66
2023-05-14T00:07:30.736Z,100136.94
2023-05-14T00:11:33.919Z,100129.91
2023-05-14T00:15:38.431Z,100129.91
2023-05-14T00:19:42.885Z,100125.50
2023-05-14T00:23:45.892Z,100120.22
2023-05-14T00:27:48.909Z,100108.75
2023-05-14T00:31:53.399Z,100114.06
2023-05-14T00:35:56.588Z,100114.06
2023-05-14T00:39:59.678Z,100095.53
2023-05-14T00:44:02.829Z,100092.91
2023-05-14T00:48:16.899Z,100095.53
2023-05-14T00:52:20.375Z,100088.53
2023-05-14T00:56:24.903Z,100094.69
2023-05-14T01:00:27.934Z,100086.78
2023-05-14T01:04:32.393Z,100085.88
2023-05-14T01:08:45.191Z,100080.59
2023-05-14T01:12:53.558Z,100077.94
2023-05-14T01:16:59.827Z,100066.50
2023-05-14T01:21:04.928Z,100066.53
2023-05-14T01:25:10.714Z,100064.75
2023-05-14T01:29:20.706Z,100064.75
2023-05-14T01:33:28.714Z,100063.88
2023-05-14T01:37:33.887Z,100070.03
2023-05-14T01:41:39.410Z,100061.22
2023-05-14T01:45:43.542Z,100070.03
2023-05-14T01:49:46.580Z,100063.00
2023-05-14T01:53:49.756Z,100068.28
2023-05-14T01:57:55.439Z,100065.63
2023-05-14T02:01:58.720Z,100066.53
2023-05-14T02:06:01.893Z,100059.47
2023-05-14T02:10:05.147Z,100047.16
2023-05-14T02:14:09.544Z,100050.72
2023-05-14T02:18:12.902Z,100047.16
2023-05-14T02:22:15.894Z,100038.38
2023-05-14T02:26:19.053Z,100033.97
2023-05-14T02:30:24.293Z,100031.34
2023-05-14T02:34:27.488Z,100030.47
2023-05-14T02:38:31.595Z,100029.59
2023-05-14T02:42:34.632Z,100025.19
2023-05-14T02:46:39.071Z,100026.94
2023-05-14T02:50:42.308Z,100019.03
2023-05-14T02:54:45.500Z,100026.09
2023-05-14T02:58:48.816Z,100034.88
2023-05-14T03:02:53.571Z,100032.22
2023-05-14T03:06:57.309Z,100021.66
2023-05-14T03:11:00.313Z,100021.66
2023-05-14T03:15:03.337Z,100030.47
2023-05-14T03:19:08.567Z,100024.34
2023-05-14T03:23:11.679Z,100024.31
2023-05-14T03:27:14.732Z,100020.78
2023-05-14T03:31:17.833Z,100013.78
2023-05-14T03:35:22.326Z,100008.47
2023-05-14T03:39:25.348Z,100016.38
2023-05-14T03:43:28.406Z,100006.72
2023-05-14T03:47:31.540Z,100005.81
2023-05-14T03:51:38.556Z,99997.03
2023-05-14T03:55:42.509Z,100008.47
2023-05-14T03:59:47.774Z,100005.81
2023-05-14T04:03:51.112Z,100005.81
2023-05-14T04:07:55.733Z,99992.63
2023-05-14T04:11:58.838Z,99999.66
2023-05-14T04:16:01.886Z,99999.66
2023-05-14T04:20:06.697Z,100001.44
2023-05-14T04:24:11.475Z,100004.06
2023-05-14T04:28:14.979Z,100004.94
2023-05-14T04:32:18.719Z,100003.19
2023-05-14T04:36:21.697Z,99996.13
2023-05-14T04:40:26.330Z,99995.25
2023-05-14T04:44:29.591Z,99994.34
2023-05-14T04:48:32.756Z,99988.22
2023-05-14T04:52:35.941Z,99990.84
2023-05-14T04:56:40.500Z,100001.41
2023-05-14T05:00:43.739Z,99991.72
2023-05-14T05:04:47.192Z,100000.50
2023-05-14T05:08:50.268Z,99995.22
2023-05-14T05:12:54.743Z,100001.41
2023-05-14T05:16:57.758Z,100010.22
2023-05-14T05:21:00.802Z,99997.88
2023-05-14T05:25:06.179Z,100005.78
2023-05-14T05:29:10.573Z,100003.16
2023-05-14T05:33:13.869Z,100002.28
2023-05-14T05:37:16.890Z,100001.38
2023-05-14T05:41:19.924Z,99989.06
2023-05-14T05:45:24.656Z,99987.31
2023-05-14T05:49:27.690Z,99982.94
2023-05-14T05:53:30.697Z,99980.28
2023-05-14T05:57:33.926Z,99982.06
2023-05-14T06:01:38.631Z,99981.19
2023-05-14T06:05:41.860Z,99990.84
2023-05-14T06:09:45.028Z,99989.06
2023-05-14T06:13:48.033Z,99987.31
2023-05-14T06:17:52.525Z,99989.06
2023-05-14T06:21:56.018Z,99988.19
2023-05-14T06:25:59.015Z,99989.06
2023-05-14T06:30:02.036Z,99978.50
2023-05-14T06:34:06.387Z,99988.22
2023-05-14T06:38:09.405Z,99986.44
2023-05-14T06:42:12.406Z,99988.19
2023-05-14T06:46:15.479Z,99989.06
2023-05-14T06:50:19.840Z,99980.28
2023-05-14T06:54:22.821Z,99992.63
2023-05-14T06:58:26.040Z,99988.22
2023-05-14T07:02:29.320Z,99994.41
2023-05-14T07:06:33.771Z,99984.72
2023-05-14T07:10:36.881Z,99986.47
2023-05-14T07:14:40.276Z,99985.63
2023-05-14T07:18:43.866Z,99984.72
2023-05-14T07:22:48.299Z,99975.94
2023-05-14T07:26:51.363Z,99974.16
2023-05-14T07:30:54.380Z,99972.41
2023-05-14T07:34:57.387Z,99969.78
2023-05-14T07:39:01.909Z,99968.00
2023-05-14T07:43:04.969Z,99969.75
2023-05-14T07:47:08.813Z,99960.97
2023-05-14T07:51:11.958Z,99960.97
2023-05-14T07:55:17.018Z,99951.28
2023-05-14T07:59:20.298Z,99949.53
2023-05-14T08:03:23.923Z,99941.63
2023-05-14T08:07:28.477Z,99941.59
2023-05-14T08:11:32.931Z,99932.81
2023-05-14T08:15:36.093Z,99922.22
2023-05-14T08:19:39.145Z,99916.06
2023-05-14T08:23:42.813Z,99913.44
2023-05-14T08:27:47.194Z,99909.91
2023-05-14T08:31:51.183Z,99914.31
2023-05-14T08:35:54.435Z,99913.47
2023-05-14T08:39:57.471Z,99909.03
2023-05-14T08:44:09.386Z,99909.03
2023-05-14T08:48:17.558Z,99914.31
2023-05-14T08:52:23.601Z,99916.97
2023-05-14T08:56:28.024Z,99908.16
2023-05-14T09:00:33.091Z,99907.28
2023-05-14T09:04:38.102Z,99906.38
2023-05-14T09:08:41.278Z,99898.44
2023-05-14T09:12:44.300Z,99899.34
2023-05-14T09:16:50.955Z,99899.34
2023-05-14T09:20:54.298Z,99889.66
2023-05-14T09:25:04.713Z,99891.44
2023-05-14T09:29:07.697Z,99892.31
2023-05-14T09:33:12.185Z,99887.03
2023-05-14T09:37:15.199Z,99883.50
2023-05-14T09:41:18.286Z,99872.94
2023-05-14T09:45:21.364Z,99876.47
2023-05-14T09:49:26.002Z,99861.53
2023-05-14T09:53:30.975Z,99861.53
2023-05-14T09:57:34.694Z,99864.16
2023-05-14T10:01:39.282Z,99870.31
2023-05-14T10:05:44.088Z,99862.38
2023-05-14T10:09:47.957Z,99842.13
2023-05-14T10:14:04.043Z,99850.94
2023-05-14T10:18:12.052Z,99848.28
2023-05-14T10:22:21.818Z,99837.72
2023-05-14T10:26:25.439Z,99828.03
2023-05-14T10:30:28.550Z,99831.53
2023-05-14T10:34:38.499Z,99822.72
2023-05-14T10:38:42.934Z,99809.53
2023-05-14T10:42:47.874Z,99806.88
2023-05-14T10:46:51.230Z,99800.72
2023-05-14T10:50:55.429Z,99798.97
2023-05-14T10:55:03.473Z,99806.88
2023-05-14T10:59:07.932Z,99804.22
2023-05-14T11:03:13.184Z,99798.91
2023-05-14T11:07:16.551Z,99791.84
2023-05-14T11:11:21.847Z,99782.13
2023-05-14T11:15:26.226Z,99779.47
2023-05-14T11:19:29.218Z,99785.59
2023-05-14T11:23:32.596Z,99777.63
2023-05-14T11:27:38.960Z,99770.53
2023-05-14T11:31:42.187Z,99772.28
2023-05-14T11:35:46.713Z,99773.16
2023-05-14T11:39:50.982Z,99757.25
2023-05-14T11:43:55.474Z,99748.47
2023-05-14T11:47:58.512Z,99737.00
2023-05-14T11:52:02.804Z,99733.47
2023-05-14T11:56:08.216Z,99730.81
2023-05-14T12:00:21.425Z,99721.09
2023-05-14T12:04:25.753Z,99715.88
2023-05-14T12:08:30.294Z,99717.59
2023-05-14T12:12:37.782Z,99714.03
2023-05-14T12:16:43.149Z,99699.91
2023-05-14T12:20:49.209Z,99679.63
2023-05-14T12:24:56.035Z,99681.34
2023-05-14T12:29:01.755Z,99687.50
2023-05-14T12:33:06.232Z,99679.53
2023-05-14T12:37:09.303Z,99665.41
2023-05-14T12:41:12.394Z,99661.00
2023-05-14T12:45:15.490Z,99666.31
2023-05-14T12:49:20.107Z,99665.44
2023-05-14T12:53:23.149Z,99669.81
2023-05-14T12:57:27.014Z,99662.75
2023-05-14T13:01:30.101Z,99664.47
2023-05-14T13:05:34.823Z,99670.66
2023-05-14T13:09:38.246Z,99675.91
2023-05-14T13:13:41.298Z,99673.31
2023-05-14T13:17:44.336Z,99671.59
2023-05-14T13:21:48.742Z,99652.22
2023-05-14T13:25:51.818Z,99661.00
2023-05-14T13:29:54.837Z,99655.78
2023-05-14T13:33:58.099Z,99640.75
2023-05-14T13:38:02.483Z,99639.84
2023-05-14T13:42:06.204Z,99625.75
2023-05-14T13:46:09.225Z,99633.66
2023-05-14T13:50:12.551Z,99626.56
2023-05-14T13:54:16.950Z,99633.56
2023-05-14T13:58:19.981Z,99629.19
2023-05-14T14:02:23.012Z,99626.47
2023-05-14T14:06:27.480Z,99623.00
2023-05-14T14:10:32.288Z,99623.84
2023-05-14T14:14:35.334Z,99602.78
2023-05-14T14:18:38.366Z,99608.09
2023-05-14T14:22:41.991Z,99608.09
2023-05-14T14:26:46.473Z,99601.97
2023-05-14T14:30:51.517Z,99594.94
2023-05-14T14:34:54.532Z,99584.34
2023-05-14T14:38:57.996Z,99589.69
2023-05-14T14:43:03.125Z,99584.41
2023-05-14T14:47:06.801Z,99582.66
2023-05-14T14:51:10.262Z,99579.97
2023-05-14T14:55:13.262Z,99570.25
2023-05-14T14:59:17.657Z,99561.47
2023-05-14T15:03:21.299Z,99547.41
2023-05-14T15:07:24.588Z,99540.31
2023-05-14T15:11:28.918Z,99542.94
2023-05-14T15:15:33.831Z,99542.03
2023-05-14T15:19:36.849Z,99546.44
2023-05-14T15:23:39.872Z,99530.56
2023-05-14T15:27:42.882Z,99530.59
2023-05-14T15:31:47.594Z,99537.66
2023-05-14T15:35:51.301Z,99527.06
2023-05-14T15:39:54.338Z,99518.25
2023-05-14T15:43:58.672Z,99514.72
2023-05-14T15:48:03.100Z,99500.66
2023-05-14T15:52:06.563Z,99498.84
2023-05-14T15:56:09.673Z,99479.53
2023-05-14T16:00:14.446Z,99485.69
2023-05-14T16:04:18.797Z,99492.72
2023-05-14T16:08:21.917Z,99485.66
2023-05-14T16:12:24.910Z,99475.94
2023-05-14T16:16:27.995Z,99475.94
2023-05-14T16:20:32.401Z,99472.47
2023-05-14T16:24:35.445Z,99454.88
2023-05-14T16:28:41.235Z,99451.41
2023-05-14T16:32:46.667Z,99443.47
2023-05-14T16:36:51.707Z,99451.41
2023-05-14T16:40:54.692Z,99442.59
2023-05-14T16:44:57.687Z,99433.78
2023-05-14T16:49:02.268Z,99421.44
2023-05-14T16:53:06.715Z,99422.38
2023-05-14T16:57:09.807Z,99416.28
2023-05-14T17:01:12.901Z,99426.00
2023-05-14T17:05:16.151Z,99417.22
2023-05-14T17:09:20.943Z,99412.78
2023-05-14T17:13:24.024Z,99418.06
2023-05-14T17:17:27.108Z,99412.78
2023-05-14T17:21:30.109Z,99411.84
2023-05-14T17:25:34.620Z,99410.16
2023-05-14T17:29:37.638Z,99402.22
2023-05-14T17:33:40.864Z,99406.56
2023-05-14T17:37:44.105Z,99401.28
2023-05-14T17:41:48.483Z,99401.25
2023-05-14T17:45:54.517Z,99395.91
2023-05-14T17:49:57.964Z,99385.31
2023-05-14T17:54:01.089Z,99389.72
2023-05-14T17:58:05.478Z,99385.38
2023-05-14T18:02:08.561Z,99380.06
2023-05-14T18:06:11.721Z,99381.84
2023-05-14T18:10:14.916Z,99370.38
2023-05-14T18:14:19.329Z,99369.50
2023-05-14T18:18:23.930Z,99367.72
2023-05-14T18:22:26.910Z,99359.78
2023-05-14T18:26:31.262Z,99353.59
2023-05-14T18:30:37.423Z,99364.16
2023-05-14T18:34:40.469Z,99360.59
2023-05-14T18:38:43.601Z,99361.53
2023-05-14T18:42:46.782Z,99356.28
2023-05-14T18:46:51.526Z,99345.66
2023-05-14T18:50:54.514Z,99343.84
2023-05-14T18:54:57.825Z,99345.53
2023-05-14T18:59:00.953Z,99336.72
2023-05-14T19:03:05.612Z,99341.09
2023-05-14T19:07:09.238Z,99331.41
2023-05-14T19:11:12.441Z,99314.59
2023-05-14T19:15:15.622Z,99310.25
2023-05-14T19:19:20.055Z,99301.44
2023-05-14T19:23:23.204Z,99300.59
2023-05-14T19:27:26.732Z,99285.59
2023-05-14T19:31:29.789Z,99285.69
2023-05-14T19:35:34.222Z,99315.63
2023-05-14T19:39:37.732Z,99312.16
2023-05-14T19:43:40.926Z,99313.94
2023-05-14T19:47:44.109Z,99308.59
2023-05-14T19:51:48.537Z,99306.84
2023-05-14T19:55:51.576Z,99291.88
2023-05-14T19:59:54.580Z,99278.69
2023-05-14T20:03:57.759Z,99275.22
2023-05-14T20:08:03.946Z,99273.41
2023-05-14T20:12:07.850Z,99280.41
2023-05-14T20:16:10.916Z,99279.56
2023-05-14T20:20:14.036Z,99279.50
2023-05-14T20:24:18.483Z,99275.03
2023-05-14T20:28:21.751Z,99260.06
2023-05-14T20:32:25.622Z,99255.66
2023-05-14T20:36:29.810Z,99251.22
2023-05-14T20:40:34.776Z,99249.38
2023-05-14T20:44:38.021Z,99251.13
2023-05-14T20:48:41.390Z,99251.97
2023-05-14T20:52:44.608Z,99245.81
2023-05-14T20:56:49.060Z,99246.69
2023-05-14T21:00:52.194Z,99244.00
2023-05-14T21:04:55.608Z,99237.75
2023-05-14T21:08:58.911Z,99235.94
2023-05-14T21:13:03.766Z,99225.34
2023-05-14T21:17:07.071Z,99229.81
2023-05-14T21:21:10.034Z,99228.97
2023-05-14T21:25:13.074Z,99217.59
2023-05-14T21:29:17.469Z,99217.63
2023-05-14T21:33:20.455Z,99216.78
2023-05-14T21:37:23.557Z,99179.75
2023-05-14T21:41:26.665Z,99163.88
2023-05-14T21:45:31.040Z,99139.16
2023-05-14T21:49:34.061Z,99133.88
2023-05-14T21:53:37.078Z,99147.16
2023-05-14T21:57:40.079Z,99143.63
2023-05-14T22:05:50.545Z,99157.78
2023-05-14T22:09:53.537Z,99162.19
2023-05-14T22:13:56.508Z,99175.44
2023-05-14T22:18:01.008Z,99176.31
2023-05-14T22:22:04.132Z,99158.69
2023-05-14T22:26:07.365Z,99143.72
2023-05-14T22:30:11.175Z,99129.69
2023-05-14T22:34:15.560Z,99147.31
2023-05-14T22:38:19.962Z,99139.41
2023-05-14T22:42:22.914Z,99144.75
2023-05-14T22:46:25.986Z,99150.00
2023-05-14T22:50:30.511Z,99148.25
2023-05-14T22:54:33.502Z,99147.31
2023-05-14T22:58:36.548Z,99133.28
2023-05-14T23:02:39.587Z,99108.59
2023-05-14T23:06:44.492Z,99090.03
2023-05-14T23:10:47.527Z,99087.31
2023-05-14T23:14:50.510Z,99087.41
2023-05-14T23:18:53.707Z,99090.06
2023-05-14T23:22:58.196Z,99091.81
2023-05-14T23:27:01.556Z,99090.09
2023-05-14T23:31:04.615Z,99086.53
2023-05-14T23:35:08.052Z,99074.22
2023-05-14T23:39:12.724Z,99089.13
2023-05-14T23:43:17.264Z,99079.38
2023-05-14T23:47:20.523Z,99084.66
2023-05-14T23:51:23.773Z,99081.13
2023-05-14T23:55:28.210Z,99070.59
2023-05-14T23:59:31.296Z,99088.22
